Terminal Aerodrome Forecast
Issued by NWS

Home | Current Version | Previous Version | Text Only | Print | Product List | Glossary On
Versions: 1 2 3 4 5 6 7 8 9 10 11 12 13
000
FTUS45 KABQ 242342
TAFFMN
TAF
KFMN 242342Z 2500/2524 27014KT P6SM VCSH SCT110 BKN150
      TEMPO 2500/2504 VRB20G30KT
     FM250400 07006KT P6SM SCT140
     FM252300 12008KT P6SM VCSH BKN110=

USA.gov is the U.S. government's official web portal to all federal, state and local government web resources and services.